Selibe-Phikwe, Botswana

11:34 PM CAT on July 24, 2014 (GMT +0200)
Francistown (FBFT) Elev 3281 ft | 21.16 °S, 27.48 °E | Change Station

Current weather conditions updated 34 minutes ago

Clear
Clear
43 °F
Feels Like 40 °F
N
5
Wind Variable Wind from NE

Tomorrow is forecast to be nearly the same temperature as today.

Today
High -- | Low -- °F
--% Chance of Precip.
Yesterday
High -- | Low -- °F
Precip. -- in
6:45 AM 5:45 PM
Waning Crescent, 4% visible
Pressure 30.18 in
Visibility -9999.0 miles
Clouds
Windchill 40 °F
Dew Point 27 °F
Humidity 53%
Rainfall 0.00 in
Snow Depth Not available.
UV Not available.
Pollen Not available.
Air Quality Not available.
Flu Activity Not available.
METAR FBFT 242100Z 04004KT CAVOK 06/M03 Q1022

More Conditions Fewer Conditions

Pressure 30.18 in
Visibility -9999.0 miles
Clouds
Windchill 40 °F
Dew Point 27 °F
Humidity 53%
Rainfall 0.00 in
Snow Depth Not available.
UV Not available.
Pollen Not available.
Air Quality Not available.
Flu Activity Not available.
METAR FBFT 242100Z 04004KT CAVOK 06/M03 Q1022

More Conditions Fewer Conditions

10-Day Weather Forecast

Almanac

Astronomy

Jul. 24, 2014 Rise Set
Actual Time 6:45 AM CAT 5:45 PM CAT
Civil Twilight 6:21 AM CAT 6:09 PM CAT
Nautical Twilight 5:54 AM CAT 6:36 PM CAT
Astronomical Twilight 5:27 AM CAT 7:03 PM CAT
Moon 4:32 AM CAT 3:51 PM CAT
Length of Visible Light 11h 48m
Length of Day
11h 00m
Tomorrow will be 0m 46s longer.
Waning Crescent, 4% of the Moon is Illuminated
Today
Waning Crescent
Jul 26
New
Aug 3
First Quarter
Aug 10
Full
Aug 17
Last Quarter

Today's Extremes

Country Highs Country Lows

Community

WunderPhotos

Upload Photos

1,737,133 photos uploaded!

WunderBlogs® & News

Nearby

Snow Depth

Not available.

Earthquake Activity

City Distance Mag. Time & Date
No recent earthquake activity has been reported nearby.
Minimum magnitude displayed is 2.5.

Coastal Water Temperatures

Place Temperature
No Stations Reporting

Nearby Weather Stations

There are no personal weather stations in this area.